sensor_id;sensor_type;location;lat;lon;timestamp;P1;durP1;ratioP1;P2;durP2;ratioP2
18997;SDS011;9632;51.018;4.284;2023-03-01T00:00:40;10.37;;;5.17;;
18997;SDS011;9632;51.018;4.284;2023-03-01T00:03:06;8.10;;;4.50;;
18997;SDS011;9632;51.018;4.284;2023-03-01T00:05:32;9.63;;;4.53;;
18997;SDS011;9632;51.018;4.284;2023-03-01T00:07:58;9.33;;;4.80;;
18997;SDS011;9632;51.018;4.284;2023-03-01T00:10:23;10.17;;;4.70;;
18997;SDS011;9632;51.018;4.284;2023-03-01T00:12:49;9.60;;;5.03;;
18997;SDS011;9632;51.018;4.284;2023-03-01T00:15:14;8.97;;;4.80;;
18997;SDS011;9632;51.018;4.284;2023-03-01T00:17:40;11.27;;;5.03;;
18997;SDS011;9632;51.018;4.284;2023-03-01T00:20:06;9.53;;;5.27;;
18997;SDS011;9632;51.018;4.284;2023-03-01T00:22:36;9.20;;;4.90;;
18997;SDS011;9632;51.018;4.284;2023-03-01T00:25:02;9.70;;;5.10;;
18997;SDS011;9632;51.018;4.284;2023-03-01T00:27:28;9.60;;;5.30;;
18997;SDS011;9632;51.018;4.284;2023-03-01T00:29:54;10.90;;;5.40;;
18997;SDS011;9632;51.018;4.284;2023-03-01T00:32:19;6.60;;;4.60;;
18997;SDS011;9632;51.018;4.284;2023-03-01T00:34:45;8.77;;;5.07;;
18997;SDS011;9632;51.018;4.284;2023-03-01T00:37:19;10.27;;;4.80;;
18997;SDS011;9632;51.018;4.284;2023-03-01T00:39:45;9.47;;;5.07;;
18997;SDS011;9632;51.018;4.284;2023-03-01T00:42:11;8.43;;;4.90;;
18997;SDS011;9632;51.018;4.284;2023-03-01T00:44:37;9.27;;;5.23;;
18997;SDS011;9632;51.018;4.284;2023-03-01T00:47:03;8.40;;;4.53;;
18997;SDS011;9632;51.018;4.284;2023-03-01T00:49:28;9.77;;;5.10;;
18997;SDS011;9632;51.018;4.284;2023-03-01T00:51:54;8.80;;;4.90;;
18997;SDS011;9632;51.018;4.284;2023-03-01T00:54:19;8.83;;;4.83;;
18997;SDS011;9632;51.018;4.284;2023-03-01T00:56:45;9.43;;;4.97;;
18997;SDS011;9632;51.018;4.284;2023-03-01T00:59:11;8.03;;;4.77;;
18997;SDS011;9632;51.018;4.284;2023-03-01T01:01:36;9.17;;;5.10;;
18997;SDS011;9632;51.018;4.284;2023-03-01T01:04:04;10.00;;;5.60;;
18997;SDS011;9632;51.018;4.284;2023-03-01T01:06:38;7.63;;;4.83;;
18997;SDS011;9632;51.018;4.284;2023-03-01T01:09:07;9.03;;;5.13;;
18997;SDS011;9632;51.018;4.284;2023-03-01T01:11:34;10.13;;;5.10;;
18997;SDS011;9632;51.018;4.284;2023-03-01T01:14:01;8.60;;;4.73;;
18997;SDS011;9632;51.018;4.284;2023-03-01T01:16:27;9.77;;;5.17;;
18997;SDS011;9632;51.018;4.284;2023-03-01T01:18:54;11.03;;;5.03;;
18997;SDS011;9632;51.018;4.284;2023-03-01T01:21:21;11.53;;;5.67;;
18997;SDS011;9632;51.018;4.284;2023-03-01T01:23:49;10.90;;;5.77;;
18997;SDS011;9632;51.018;4.284;2023-03-01T01:26:16;10.43;;;5.47;;
18997;SDS011;9632;51.018;4.284;2023-03-01T01:28:44;13.00;;;5.57;;
18997;SDS011;9632;51.018;4.284;2023-03-01T01:31:10;8.10;;;5.10;;
18997;SDS011;9632;51.018;4.284;2023-03-01T01:33:36;8.33;;;5.17;;
18997;SDS011;9632;51.018;4.284;2023-03-01T01:36:02;9.83;;;5.23;;
18997;SDS011;9632;51.018;4.284;2023-03-01T01:38:29;9.07;;;5.53;;
18997;SDS011;9632;51.018;4.284;2023-03-01T01:40:55;9.20;;;5.43;;
18997;SDS011;9632;51.018;4.284;2023-03-01T01:43:25;9.13;;;5.30;;
18997;SDS011;9632;51.018;4.284;2023-03-01T01:46:07;8.60;;;5.37;;
18997;SDS011;9632;51.018;4.284;2023-03-01T01:48:52;10.70;;;5.57;;
18997;SDS011;9632;51.018;4.284;2023-03-01T01:51:25;12.03;;;5.67;;
18997;SDS011;9632;51.018;4.284;2023-03-01T01:54:03;10.30;;;5.43;;
18997;SDS011;9632;51.018;4.284;2023-03-01T01:56:34;10.17;;;5.50;;
18997;SDS011;9632;51.018;4.284;2023-03-01T01:59:05;8.47;;;5.03;;
18997;SDS011;9632;51.018;4.284;2023-03-01T02:01:31;8.87;;;5.20;;
18997;SDS011;9632;51.018;4.284;2023-03-01T02:03:56;10.87;;;5.53;;
18997;SDS011;9632;51.018;4.284;2023-03-01T02:06:31;10.17;;;5.13;;
18997;SDS011;9632;51.018;4.284;2023-03-01T02:09:03;8.07;;;4.97;;
18997;SDS011;9632;51.018;4.284;2023-03-01T02:11:32;10.03;;;5.30;;
18997;SDS011;9632;51.018;4.284;2023-03-01T02:13:59;10.23;;;5.60;;
18997;SDS011;9632;51.018;4.284;2023-03-01T02:16:25;9.60;;;5.50;;
18997;SDS011;9632;51.018;4.284;2023-03-01T02:18:51;9.90;;;5.30;;
18997;SDS011;9632;51.018;4.284;2023-03-01T02:23:49;8.97;;;5.60;;
18997;SDS011;9632;51.018;4.284;2023-03-01T02:26:19;10.07;;;5.50;;
18997;SDS011;9632;51.018;4.284;2023-03-01T02:28:52;10.63;;;5.10;;
18997;SDS011;9632;51.018;4.284;2023-03-01T02:31:19;9.87;;;5.50;;
18997;SDS011;9632;51.018;4.284;2023-03-01T02:34:04;12.20;;;5.60;;
18997;SDS011;9632;51.018;4.284;2023-03-01T02:36:36;9.10;;;5.50;;
18997;SDS011;9632;51.018;4.284;2023-03-01T02:39:12;11.97;;;5.93;;
18997;SDS011;9632;51.018;4.284;2023-03-01T02:41:42;9.23;;;5.57;;
18997;SDS011;9632;51.018;4.284;2023-03-01T02:44:12;9.27;;;5.60;;
18997;SDS011;9632;51.018;4.284;2023-03-01T02:46:44;11.63;;;5.60;;
18997;SDS011;9632;51.018;4.284;2023-03-01T02:49:20;11.50;;;5.47;;
18997;SDS011;9632;51.018;4.284;2023-03-01T02:57:34;10.70;;;5.80;;
18997;SDS011;9632;51.018;4.284;2023-03-01T03:00:05;10.70;;;5.60;;
18997;SDS011;9632;51.018;4.284;2023-03-01T03:02:33;12.57;;;5.83;;
18997;SDS011;9632;51.018;4.284;2023-03-01T03:07:38;9.73;;;5.60;;
18997;SDS011;9632;51.018;4.284;2023-03-01T03:10:06;10.83;;;6.07;;
18997;SDS011;9632;51.018;4.284;2023-03-01T03:12:36;11.03;;;6.00;;
18997;SDS011;9632;51.018;4.284;2023-03-01T03:15:02;10.87;;;6.13;;
18997;SDS011;9632;51.018;4.284;2023-03-01T03:17:33;11.27;;;5.90;;
18997;SDS011;9632;51.018;4.284;2023-03-01T03:20:02;11.87;;;5.77;;
18997;SDS011;9632;51.018;4.284;2023-03-01T03:22:30;11.87;;;6.07;;
18997;SDS011;9632;51.018;4.284;2023-03-01T03:24:58;11.70;;;5.77;;
18997;SDS011;9632;51.018;4.284;2023-03-01T03:27:24;9.10;;;5.57;;
18997;SDS011;9632;51.018;4.284;2023-03-01T03:29:50;10.43;;;5.93;;
18997;SDS011;9632;51.018;4.284;2023-03-01T03:32:15;11.03;;;5.77;;
18997;SDS011;9632;51.018;4.284;2023-03-01T03:34:41;10.57;;;5.60;;
18997;SDS011;9632;51.018;4.284;2023-03-01T03:37:07;10.33;;;5.77;;
18997;SDS011;9632;51.018;4.284;2023-03-01T03:39:52;9.40;;;5.77;;
18997;SDS011;9632;51.018;4.284;2023-03-01T03:42:19;14.23;;;5.57;;
18997;SDS011;9632;51.018;4.284;2023-03-01T03:44:46;11.13;;;5.63;;
18997;SDS011;9632;51.018;4.284;2023-03-01T03:47:12;13.10;;;6.23;;
18997;SDS011;9632;51.018;4.284;2023-03-01T03:49:38;10.00;;;5.90;;
18997;SDS011;9632;51.018;4.284;2023-03-01T03:52:03;10.47;;;5.83;;
18997;SDS011;9632;51.018;4.284;2023-03-01T03:54:29;10.73;;;5.57;;
18997;SDS011;9632;51.018;4.284;2023-03-01T03:56:55;12.83;;;6.07;;
18997;SDS011;9632;51.018;4.284;2023-03-01T03:59:20;8.73;;;5.07;;
18997;SDS011;9632;51.018;4.284;2023-03-01T04:01:46;13.73;;;5.57;;
18997;SDS011;9632;51.018;4.284;2023-03-01T04:04:11;9.47;;;5.13;;
18997;SDS011;9632;51.018;4.284;2023-03-01T04:06:38;9.43;;;5.53;;
18997;SDS011;9632;51.018;4.284;2023-03-01T04:09:03;12.40;;;5.93;;
18997;SDS011;9632;51.018;4.284;2023-03-01T04:11:29;9.57;;;5.33;;
18997;SDS011;9632;51.018;4.284;2023-03-01T04:13:57;11.80;;;5.67;;
18997;SDS011;9632;51.018;4.284;2023-03-01T04:16:23;11.67;;;5.57;;
18997;SDS011;9632;51.018;4.284;2023-03-01T04:18:49;10.70;;;5.47;;
18997;SDS011;9632;51.018;4.284;2023-03-01T04:21:15;11.37;;;5.80;;
18997;SDS011;9632;51.018;4.284;2023-03-01T04:23:41;8.90;;;5.43;;
18997;SDS011;9632;51.018;4.284;2023-03-01T04:26:07;10.93;;;5.70;;
18997;SDS011;9632;51.018;4.284;2023-03-01T04:28:34;12.00;;;5.70;;
18997;SDS011;9632;51.018;4.284;2023-03-01T04:31:06;10.30;;;5.90;;
18997;SDS011;9632;51.018;4.284;2023-03-01T04:36:12;13.43;;;5.97;;
18997;SDS011;9632;51.018;4.284;2023-03-01T04:38:39;11.07;;;5.87;;
18997;SDS011;9632;51.018;4.284;2023-03-01T04:41:06;11.23;;;5.80;;
18997;SDS011;9632;51.018;4.284;2023-03-01T04:43:33;10.53;;;5.80;;
18997;SDS011;9632;51.018;4.284;2023-03-01T04:46:00;11.03;;;5.73;;
18997;SDS011;9632;51.018;4.284;2023-03-01T04:48:31;10.77;;;5.30;;
18997;SDS011;9632;51.018;4.284;2023-03-01T04:51:00;15.87;;;5.90;;
18997;SDS011;9632;51.018;4.284;2023-03-01T04:53:26;11.07;;;5.50;;
18997;SDS011;9632;51.018;4.284;2023-03-01T04:55:56;10.83;;;5.63;;
18997;SDS011;9632;51.018;4.284;2023-03-01T04:58:23;11.10;;;5.70;;
18997;SDS011;9632;51.018;4.284;2023-03-01T05:00:49;13.60;;;5.80;;
18997;SDS011;9632;51.018;4.284;2023-03-01T05:03:15;10.63;;;5.70;;
18997;SDS011;9632;51.018;4.284;2023-03-01T05:05:45;10.77;;;5.80;;
18997;SDS011;9632;51.018;4.284;2023-03-01T05:08:12;10.77;;;5.90;;
18997;SDS011;9632;51.018;4.284;2023-03-01T05:10:46;11.40;;;5.67;;
18997;SDS011;9632;51.018;4.284;2023-03-01T05:13:16;12.13;;;5.87;;
18997;SDS011;9632;51.018;4.284;2023-03-01T05:15:53;11.50;;;5.60;;
18997;SDS011;9632;51.018;4.284;2023-03-01T05:18:20;12.90;;;6.00;;
18997;SDS011;9632;51.018;4.284;2023-03-01T05:20:46;12.53;;;6.20;;
18997;SDS011;9632;51.018;4.284;2023-03-01T05:23:12;11.67;;;5.80;;
18997;SDS011;9632;51.018;4.284;2023-03-01T05:25:38;8.93;;;5.33;;
18997;SDS011;9632;51.018;4.284;2023-03-01T05:28:05;13.90;;;6.07;;
18997;SDS011;9632;51.018;4.284;2023-03-01T05:30:34;13.97;;;6.03;;
18997;SDS011;9632;51.018;4.284;2023-03-01T05:33:00;10.70;;;5.73;;
18997;SDS011;9632;51.018;4.284;2023-03-01T05:35:25;12.70;;;5.90;;
18997;SDS011;9632;51.018;4.284;2023-03-01T05:37:51;12.13;;;5.77;;
18997;SDS011;9632;51.018;4.284;2023-03-01T05:40:21;11.00;;;5.97;;
18997;SDS011;9632;51.018;4.284;2023-03-01T05:42:49;12.30;;;6.43;;
18997;SDS011;9632;51.018;4.284;2023-03-01T05:45:20;10.77;;;5.70;;
18997;SDS011;9632;51.018;4.284;2023-03-01T05:47:47;15.27;;;5.80;;
18997;SDS011;9632;51.018;4.284;2023-03-01T05:52:51;11.63;;;6.30;;
18997;SDS011;9632;51.018;4.284;2023-03-01T05:55:21;11.13;;;6.37;;
18997;SDS011;9632;51.018;4.284;2023-03-01T05:57:47;14.83;;;6.17;;
18997;SDS011;9632;51.018;4.284;2023-03-01T06:00:15;15.00;;;6.27;;
18997;SDS011;9632;51.018;4.284;2023-03-01T06:02:41;10.93;;;5.53;;
18997;SDS011;9632;51.018;4.284;2023-03-01T06:05:08;12.87;;;5.80;;
18997;SDS011;9632;51.018;4.284;2023-03-01T06:07:35;11.50;;;5.73;;
18997;SDS011;9632;51.018;4.284;2023-03-01T06:10:01;11.47;;;6.13;;
18997;SDS011;9632;51.018;4.284;2023-03-01T06:12:35;15.63;;;6.10;;
18997;SDS011;9632;51.018;4.284;2023-03-01T06:15:02;11.33;;;6.20;;
18997;SDS011;9632;51.018;4.284;2023-03-01T06:17:29;13.90;;;6.33;;
18997;SDS011;9632;51.018;4.284;2023-03-01T06:19:56;13.17;;;6.43;;
18997;SDS011;9632;51.018;4.284;2023-03-01T06:22:22;12.30;;;5.70;;
18997;SDS011;9632;51.018;4.284;2023-03-01T06:24:48;11.63;;;6.23;;
18997;SDS011;9632;51.018;4.284;2023-03-01T06:27:13;12.70;;;6.50;;
18997;SDS011;9632;51.018;4.284;2023-03-01T06:29:39;12.03;;;6.30;;
18997;SDS011;9632;51.018;4.284;2023-03-01T06:32:04;16.77;;;6.63;;
18997;SDS011;9632;51.018;4.284;2023-03-01T06:34:30;15.50;;;6.67;;
18997;SDS011;9632;51.018;4.284;2023-03-01T06:36:57;12.73;;;6.83;;
18997;SDS011;9632;51.018;4.284;2023-03-01T06:39:22;13.97;;;6.33;;
18997;SDS011;9632;51.018;4.284;2023-03-01T06:41:48;13.73;;;7.00;;
18997;SDS011;9632;51.018;4.284;2023-03-01T06:44:13;13.27;;;6.40;;
18997;SDS011;9632;51.018;4.284;2023-03-01T06:46:39;16.00;;;6.10;;
18997;SDS011;9632;51.018;4.284;2023-03-01T06:49:05;11.77;;;6.47;;
18997;SDS011;9632;51.018;4.284;2023-03-01T06:51:34;16.23;;;6.73;;
18997;SDS011;9632;51.018;4.284;2023-03-01T06:54:01;13.37;;;6.23;;
18997;SDS011;9632;51.018;4.284;2023-03-01T06:56:27;16.20;;;6.37;;
18997;SDS011;9632;51.018;4.284;2023-03-01T06:58:52;11.03;;;6.30;;
18997;SDS011;9632;51.018;4.284;2023-03-01T07:01:18;13.97;;;6.53;;
18997;SDS011;9632;51.018;4.284;2023-03-01T07:03:44;12.90;;;6.63;;
18997;SDS011;9632;51.018;4.284;2023-03-01T07:06:09;18.33;;;7.37;;
18997;SDS011;9632;51.018;4.284;2023-03-01T07:08:37;13.40;;;6.83;;
18997;SDS011;9632;51.018;4.284;2023-03-01T07:11:03;13.50;;;6.93;;
18997;SDS011;9632;51.018;4.284;2023-03-01T07:13:29;18.43;;;7.13;;
18997;SDS011;9632;51.018;4.284;2023-03-01T07:15:55;14.93;;;6.80;;
18997;SDS011;9632;51.018;4.284;2023-03-01T07:18:21;16.27;;;6.80;;
18997;SDS011;9632;51.018;4.284;2023-03-01T07:20:46;12.47;;;6.40;;
18997;SDS011;9632;51.018;4.284;2023-03-01T07:23:12;13.63;;;7.03;;
18997;SDS011;9632;51.018;4.284;2023-03-01T07:25:38;14.63;;;6.83;;
18997;SDS011;9632;51.018;4.284;2023-03-01T07:28:03;18.23;;;6.97;;
18997;SDS011;9632;51.018;4.284;2023-03-01T07:30:29;15.33;;;7.00;;
18997;SDS011;9632;51.018;4.284;2023-03-01T07:32:55;15.60;;;6.93;;
18997;SDS011;9632;51.018;4.284;2023-03-01T07:35:22;15.43;;;6.83;;
18997;SDS011;9632;51.018;4.284;2023-03-01T07:37:50;14.13;;;7.10;;
18997;SDS011;9632;51.018;4.284;2023-03-01T07:40:21;12.17;;;6.63;;
18997;SDS011;9632;51.018;4.284;2023-03-01T07:42:49;12.90;;;6.97;;
18997;SDS011;9632;51.018;4.284;2023-03-01T07:45:20;14.80;;;6.97;;
18997;SDS011;9632;51.018;4.284;2023-03-01T07:47:45;15.00;;;7.00;;
18997;SDS011;9632;51.018;4.284;2023-03-01T07:50:11;13.27;;;6.63;;
18997;SDS011;9632;51.018;4.284;2023-03-01T07:52:38;13.27;;;6.53;;
18997;SDS011;9632;51.018;4.284;2023-03-01T07:55:04;12.23;;;7.03;;
18997;SDS011;9632;51.018;4.284;2023-03-01T07:57:30;14.27;;;7.33;;
18997;SDS011;9632;51.018;4.284;2023-03-01T07:59:57;14.80;;;6.90;;
18997;SDS011;9632;51.018;4.284;2023-03-01T08:02:24;15.93;;;7.40;;
18997;SDS011;9632;51.018;4.284;2023-03-01T08:04:51;17.77;;;7.23;;
18997;SDS011;9632;51.018;4.284;2023-03-01T08:07:16;14.80;;;6.93;;
18997;SDS011;9632;51.018;4.284;2023-03-01T08:09:43;15.87;;;7.27;;
18997;SDS011;9632;51.018;4.284;2023-03-01T08:12:12;13.57;;;6.57;;
18997;SDS011;9632;51.018;4.284;2023-03-01T08:14:37;14.53;;;6.87;;
18997;SDS011;9632;51.018;4.284;2023-03-01T08:17:03;12.17;;;6.90;;
18997;SDS011;9632;51.018;4.284;2023-03-01T08:19:30;15.70;;;7.37;;
18997;SDS011;9632;51.018;4.284;2023-03-01T08:21:58;19.70;;;6.73;;
18997;SDS011;9632;51.018;4.284;2023-03-01T08:24:24;15.20;;;7.13;;
18997;SDS011;9632;51.018;4.284;2023-03-01T08:26:50;14.80;;;7.00;;
18997;SDS011;9632;51.018;4.284;2023-03-01T08:29:16;14.37;;;6.73;;
18997;SDS011;9632;51.018;4.284;2023-03-01T08:31:42;14.30;;;7.10;;
18997;SDS011;9632;51.018;4.284;2023-03-01T08:34:08;14.43;;;6.77;;
18997;SDS011;9632;51.018;4.284;2023-03-01T08:36:37;13.60;;;6.87;;
18997;SDS011;9632;51.018;4.284;2023-03-01T08:39:05;16.60;;;6.87;;
18997;SDS011;9632;51.018;4.284;2023-03-01T08:41:32;14.63;;;7.40;;
18997;SDS011;9632;51.018;4.284;2023-03-01T08:43:58;13.83;;;7.27;;
18997;SDS011;9632;51.018;4.284;2023-03-01T08:46:42;15.17;;;7.47;;
18997;SDS011;9632;51.018;4.284;2023-03-01T08:49:10;12.47;;;6.77;;
18997;SDS011;9632;51.018;4.284;2023-03-01T08:51:38;14.83;;;7.17;;
18997;SDS011;9632;51.018;4.284;2023-03-01T08:54:04;15.50;;;7.00;;
18997;SDS011;9632;51.018;4.284;2023-03-01T08:56:31;14.30;;;7.40;;
18997;SDS011;9632;51.018;4.284;2023-03-01T08:58:57;15.27;;;7.33;;
18997;SDS011;9632;51.018;4.284;2023-03-01T09:01:24;14.90;;;7.20;;
18997;SDS011;9632;51.018;4.284;2023-03-01T09:03:50;14.53;;;7.40;;
18997;SDS011;9632;51.018;4.284;2023-03-01T09:06:15;15.53;;;7.20;;
18997;SDS011;9632;51.018;4.284;2023-03-01T09:08:42;13.10;;;7.33;;
18997;SDS011;9632;51.018;4.284;2023-03-01T09:11:11;14.30;;;7.27;;
18997;SDS011;9632;51.018;4.284;2023-03-01T09:13:38;15.67;;;7.53;;
18997;SDS011;9632;51.018;4.284;2023-03-01T09:16:05;13.67;;;6.80;;
18997;SDS011;9632;51.018;4.284;2023-03-01T09:18:32;14.03;;;7.00;;
18997;SDS011;9632;51.018;4.284;2023-03-01T09:21:08;13.17;;;7.27;;
18997;SDS011;9632;51.018;4.284;2023-03-01T09:23:36;15.80;;;7.53;;
18997;SDS011;9632;51.018;4.284;2023-03-01T09:26:07;15.50;;;7.40;;
18997;SDS011;9632;51.018;4.284;2023-03-01T09:28:35;17.27;;;7.13;;
18997;SDS011;9632;51.018;4.284;2023-03-01T09:31:01;17.10;;;7.40;;
18997;SDS011;9632;51.018;4.284;2023-03-01T09:33:31;15.60;;;7.50;;
18997;SDS011;9632;51.018;4.284;2023-03-01T09:36:02;15.43;;;7.27;;
18997;SDS011;9632;51.018;4.284;2023-03-01T09:38:29;15.77;;;7.63;;
18997;SDS011;9632;51.018;4.284;2023-03-01T09:40:55;19.97;;;7.40;;
18997;SDS011;9632;51.018;4.284;2023-03-01T09:45:46;15.73;;;7.57;;
18997;SDS011;9632;51.018;4.284;2023-03-01T09:48:18;14.40;;;7.50;;
18997;SDS011;9632;51.018;4.284;2023-03-01T09:50:47;14.73;;;6.90;;
18997;SDS011;9632;51.018;4.284;2023-03-01T09:53:14;17.47;;;7.30;;
18997;SDS011;9632;51.018;4.284;2023-03-01T09:55:59;14.10;;;7.30;;
18997;SDS011;9632;51.018;4.284;2023-03-01T09:58:37;13.40;;;6.67;;
18997;SDS011;9632;51.018;4.284;2023-03-01T10:01:14;17.73;;;6.97;;
18997;SDS011;9632;51.018;4.284;2023-03-01T10:06:26;14.68;;;6.53;;
18997;SDS011;9632;51.018;4.284;2023-03-01T10:08:54;16.02;;;6.43;;
18997;SDS011;9632;51.018;4.284;2023-03-01T10:11:24;12.23;;;6.80;;
18997;SDS011;9632;51.018;4.284;2023-03-01T10:19:23;18.57;;;7.53;;
18997;SDS011;9632;51.018;4.284;2023-03-01T10:22:05;15.83;;;6.63;;
18997;SDS011;9632;51.018;4.284;2023-03-01T10:24:46;11.63;;;6.43;;
18997;SDS011;9632;51.018;4.284;2023-03-01T10:27:22;14.10;;;6.60;;
18997;SDS011;9632;51.018;4.284;2023-03-01T10:32:28;11.70;;;6.53;;
18997;SDS011;9632;51.018;4.284;2023-03-01T10:34:54;12.87;;;6.53;;
18997;SDS011;9632;51.018;4.284;2023-03-01T10:37:22;12.17;;;6.63;;
18997;SDS011;9632;51.018;4.284;2023-03-01T10:42:34;15.68;;;6.65;;
18997;SDS011;9632;51.018;4.284;2023-03-01T10:50:37;15.10;;;6.30;;
18997;SDS011;9632;51.018;4.284;2023-03-01T10:53:05;14.68;;;6.82;;
18997;SDS011;9632;51.018;4.284;2023-03-01T10:55:56;16.58;;;6.88;;
18997;SDS011;9632;51.018;4.284;2023-03-01T10:58:57;14.77;;;6.40;;
18997;SDS011;9632;51.018;4.284;2023-03-01T11:01:29;11.90;;;6.80;;
18997;SDS011;9632;51.018;4.284;2023-03-01T11:06:32;20.38;;;7.40;;
18997;SDS011;9632;51.018;4.284;2023-03-01T11:11:52;12.20;;;6.85;;
18997;SDS011;9632;51.018;4.284;2023-03-01T11:16:46;14.35;;;6.53;;
18997;SDS011;9632;51.018;4.284;2023-03-01T11:19:20;14.75;;;6.38;;
18997;SDS011;9632;51.018;4.284;2023-03-01T11:24:30;13.13;;;6.90;;
18997;SDS011;9632;51.018;4.284;2023-03-01T11:27:00;15.85;;;6.80;;
18997;SDS011;9632;51.018;4.284;2023-03-01T11:32:17;12.13;;;6.37;;
18997;SDS011;9632;51.018;4.284;2023-03-01T11:35:02;15.38;;;6.47;;
18997;SDS011;9632;51.018;4.284;2023-03-01T11:37:49;12.35;;;6.82;;
18997;SDS011;9632;51.018;4.284;2023-03-01T11:40:37;11.93;;;6.45;;
18997;SDS011;9632;51.018;4.284;2023-03-01T11:46:23;11.65;;;6.60;;
18997;SDS011;9632;51.018;4.284;2023-03-01T11:56:35;12.93;;;6.65;;
18997;SDS011;9632;51.018;4.284;2023-03-01T11:59:13;12.27;;;5.93;;
18997;SDS011;9632;51.018;4.284;2023-03-01T12:06:57;11.10;;;5.70;;
18997;SDS011;9632;51.018;4.284;2023-03-01T12:12:29;13.05;;;6.13;;
18997;SDS011;9632;51.018;4.284;2023-03-01T12:23:20;19.92;;;6.82;;
18997;SDS011;9632;51.018;4.284;2023-03-01T12:31:32;12.90;;;5.60;;
18997;SDS011;9632;51.018;4.284;2023-03-01T12:50:40;10.70;;;5.38;;
18997;SDS011;9632;51.018;4.284;2023-03-01T12:53:26;12.48;;;5.25;;
18997;SDS011;9632;51.018;4.284;2023-03-01T12:55:58;10.23;;;5.78;;
18997;SDS011;9632;51.018;4.284;2023-03-01T12:58:47;9.32;;;5.43;;
18997;SDS011;9632;51.018;4.284;2023-03-01T13:09:12;12.48;;;6.30;;
18997;SDS011;9632;51.018;4.284;2023-03-01T13:11:41;9.77;;;5.65;;
18997;SDS011;9632;51.018;4.284;2023-03-01T13:16:46;13.48;;;5.53;;
18997;SDS011;9632;51.018;4.284;2023-03-01T13:19:21;13.60;;;5.70;;
18997;SDS011;9632;51.018;4.284;2023-03-01T13:21:49;9.98;;;5.30;;
18997;SDS011;9632;51.018;4.284;2023-03-01T13:24:49;9.63;;;5.47;;
18997;SDS011;9632;51.018;4.284;2023-03-01T13:29:53;10.82;;;5.13;;
18997;SDS011;9632;51.018;4.284;2023-03-01T13:34:57;10.30;;;5.70;;
18997;SDS011;9632;51.018;4.284;2023-03-01T13:37:28;9.70;;;5.30;;
18997;SDS011;9632;51.018;4.284;2023-03-01T13:40:00;10.65;;;5.45;;
18997;SDS011;9632;51.018;4.284;2023-03-01T13:42:32;14.10;;;6.25;;
18997;SDS011;9632;51.018;4.284;2023-03-01T13:45:15;16.45;;;6.65;;
18997;SDS011;9632;51.018;4.284;2023-03-01T13:47:44;13.38;;;6.47;;
18997;SDS011;9632;51.018;4.284;2023-03-01T13:50:18;9.15;;;5.68;;
18997;SDS011;9632;51.018;4.284;2023-03-01T13:52:52;14.50;;;5.75;;
18997;SDS011;9632;51.018;4.284;2023-03-01T13:55:37;10.18;;;5.60;;
18997;SDS011;9632;51.018;4.284;2023-03-01T13:58:18;11.70;;;5.15;;
18997;SDS011;9632;51.018;4.284;2023-03-01T14:03:25;10.70;;;5.05;;
18997;SDS011;9632;51.018;4.284;2023-03-01T14:08:51;10.25;;;5.57;;
18997;SDS011;9632;51.018;4.284;2023-03-01T14:14:26;13.10;;;6.22;;
18997;SDS011;9632;51.018;4.284;2023-03-01T14:20:19;11.48;;;5.50;;
18997;SDS011;9632;51.018;4.284;2023-03-01T14:22:51;12.38;;;6.22;;
18997;SDS011;9632;51.018;4.284;2023-03-01T14:25:21;12.40;;;5.60;;
18997;SDS011;9632;51.018;4.284;2023-03-01T14:27:57;10.30;;;6.03;;
18997;SDS011;9632;51.018;4.284;2023-03-01T14:30:40;11.40;;;5.90;;
18997;SDS011;9632;51.018;4.284;2023-03-01T14:33:25;10.70;;;5.80;;
18997;SDS011;9632;51.018;4.284;2023-03-01T14:35:55;12.73;;;5.20;;
18997;SDS011;9632;51.018;4.284;2023-03-01T14:38:22;15.57;;;5.45;;
18997;SDS011;9632;51.018;4.284;2023-03-01T14:40:53;10.23;;;5.65;;
18997;SDS011;9632;51.018;4.284;2023-03-01T14:43:23;12.88;;;5.70;;
18997;SDS011;9632;51.018;4.284;2023-03-01T14:45:51;10.38;;;5.28;;
18997;SDS011;9632;51.018;4.284;2023-03-01T14:48:17;11.30;;;5.28;;
18997;SDS011;9632;51.018;4.284;2023-03-01T14:50:44;9.63;;;5.45;;
18997;SDS011;9632;51.018;4.284;2023-03-01T14:53:26;10.40;;;5.68;;
18997;SDS011;9632;51.018;4.284;2023-03-01T14:55:56;14.13;;;5.72;;
18997;SDS011;9632;51.018;4.284;2023-03-01T14:58:29;10.30;;;5.18;;
18997;SDS011;9632;51.018;4.284;2023-03-01T15:00:59;11.13;;;5.43;;
18997;SDS011;9632;51.018;4.284;2023-03-01T15:03:36;13.18;;;5.90;;
18997;SDS011;9632;51.018;4.284;2023-03-01T15:06:07;11.25;;;5.45;;
18997;SDS011;9632;51.018;4.284;2023-03-01T15:08:35;10.95;;;5.65;;
18997;SDS011;9632;51.018;4.284;2023-03-01T15:13:53;12.85;;;5.57;;
18997;SDS011;9632;51.018;4.284;2023-03-01T15:16:21;12.00;;;5.50;;
18997;SDS011;9632;51.018;4.284;2023-03-01T15:19:05;12.95;;;5.50;;
18997;SDS011;9632;51.018;4.284;2023-03-01T15:21:35;9.85;;;5.50;;
18997;SDS011;9632;51.018;4.284;2023-03-01T15:26:44;9.57;;;5.63;;
18997;SDS011;9632;51.018;4.284;2023-03-01T15:29:19;11.68;;;5.80;;
18997;SDS011;9632;51.018;4.284;2023-03-01T15:34:24;13.57;;;5.93;;
18997;SDS011;9632;51.018;4.284;2023-03-01T15:36:53;17.90;;;6.55;;
18997;SDS011;9632;51.018;4.284;2023-03-01T15:42:13;16.80;;;6.13;;
18997;SDS011;9632;51.018;4.284;2023-03-01T15:45:11;13.18;;;5.60;;
18997;SDS011;9632;51.018;4.284;2023-03-01T15:47:47;11.23;;;5.78;;
18997;SDS011;9632;51.018;4.284;2023-03-01T15:50:27;10.68;;;6.30;;
18997;SDS011;9632;51.018;4.284;2023-03-01T15:52:56;12.18;;;5.57;;
18997;SDS011;9632;51.018;4.284;2023-03-01T15:55:25;11.82;;;5.75;;
18997;SDS011;9632;51.018;4.284;2023-03-01T15:58:05;16.10;;;5.70;;
18997;SDS011;9632;51.018;4.284;2023-03-01T16:00:37;10.93;;;5.38;;
18997;SDS011;9632;51.018;4.284;2023-03-01T16:03:04;10.13;;;5.45;;
18997;SDS011;9632;51.018;4.284;2023-03-01T16:05:33;11.07;;;5.95;;
18997;SDS011;9632;51.018;4.284;2023-03-01T16:08:00;16.52;;;6.03;;
18997;SDS011;9632;51.018;4.284;2023-03-01T16:10:26;10.25;;;5.70;;
18997;SDS011;9632;51.018;4.284;2023-03-01T16:12:52;9.75;;;5.20;;
18997;SDS011;9632;51.018;4.284;2023-03-01T16:15:22;11.85;;;5.72;;
18997;SDS011;9632;51.018;4.284;2023-03-01T16:17:49;11.20;;;5.90;;
18997;SDS011;9632;51.018;4.284;2023-03-01T16:20:15;11.38;;;5.97;;
18997;SDS011;9632;51.018;4.284;2023-03-01T16:22:44;10.93;;;5.55;;
18997;SDS011;9632;51.018;4.284;2023-03-01T16:25:11;12.18;;;5.82;;
18997;SDS011;9632;51.018;4.284;2023-03-01T16:27:41;12.73;;;5.72;;
18997;SDS011;9632;51.018;4.284;2023-03-01T16:30:08;14.27;;;6.00;;
18997;SDS011;9632;51.018;4.284;2023-03-01T16:32:37;15.52;;;5.75;;
18997;SDS011;9632;51.018;4.284;2023-03-01T16:35:04;11.75;;;5.78;;
18997;SDS011;9632;51.018;4.284;2023-03-01T16:37:32;12.30;;;6.07;;
18997;SDS011;9632;51.018;4.284;2023-03-01T16:39:59;9.43;;;5.72;;
18997;SDS011;9632;51.018;4.284;2023-03-01T16:42:25;10.20;;;5.30;;
18997;SDS011;9632;51.018;4.284;2023-03-01T16:44:54;10.20;;;6.10;;
18997;SDS011;9632;51.018;4.284;2023-03-01T16:47:20;13.80;;;5.60;;
18997;SDS011;9632;51.018;4.284;2023-03-01T16:49:47;10.63;;;5.80;;
18997;SDS011;9632;51.018;4.284;2023-03-01T16:52:16;12.43;;;6.00;;
18997;SDS011;9632;51.018;4.284;2023-03-01T16:54:41;10.75;;;6.22;;
18997;SDS011;9632;51.018;4.284;2023-03-01T16:57:07;11.05;;;5.88;;
18997;SDS011;9632;51.018;4.284;2023-03-01T16:59:33;13.85;;;6.07;;
18997;SDS011;9632;51.018;4.284;2023-03-01T17:01:58;12.95;;;6.28;;
18997;SDS011;9632;51.018;4.284;2023-03-01T17:04:24;18.33;;;6.15;;
18997;SDS011;9632;51.018;4.284;2023-03-01T17:06:50;16.17;;;6.30;;
18997;SDS011;9632;51.018;4.284;2023-03-01T17:09:15;10.82;;;6.15;;
18997;SDS011;9632;51.018;4.284;2023-03-01T17:11:42;11.27;;;5.53;;
18997;SDS011;9632;51.018;4.284;2023-03-01T17:14:08;13.32;;;6.05;;
18997;SDS011;9632;51.018;4.284;2023-03-01T17:16:33;12.25;;;6.25;;
18997;SDS011;9632;51.018;4.284;2023-03-01T17:19:00;13.18;;;6.10;;
18997;SDS011;9632;51.018;4.284;2023-03-01T17:21:25;12.75;;;6.38;;